sensor_id;sensor_type;location;lat;lon;timestamp;P1;durP1;ratioP1;P2;durP2;ratioP2
18983;SDS011;9626;52.552;13.436;2022-12-07T00:02:25;11.90;;;8.30;;
18983;SDS011;9626;52.552;13.436;2022-12-07T00:04:51;13.13;;;9.03;;
18983;SDS011;9626;52.552;13.436;2022-12-07T00:07:17;14.27;;;9.07;;
18983;SDS011;9626;52.552;13.436;2022-12-07T00:09:43;11.03;;;8.20;;
18983;SDS011;9626;52.552;13.436;2022-12-07T00:12:09;11.73;;;8.50;;
18983;SDS011;9626;52.552;13.436;2022-12-07T00:14:35;14.17;;;8.17;;
18983;SDS011;9626;52.552;13.436;2022-12-07T00:17:01;11.27;;;8.13;;
18983;SDS011;9626;52.552;13.436;2022-12-07T00:19:27;12.63;;;8.43;;
18983;SDS011;9626;52.552;13.436;2022-12-07T00:21:53;12.07;;;8.27;;
18983;SDS011;9626;52.552;13.436;2022-12-07T00:24:19;11.97;;;7.53;;
18983;SDS011;9626;52.552;13.436;2022-12-07T00:26:45;12.47;;;8.00;;
18983;SDS011;9626;52.552;13.436;2022-12-07T00:29:18;10.00;;;7.90;;
18983;SDS011;9626;52.552;13.436;2022-12-07T00:31:46;10.53;;;7.77;;
18983;SDS011;9626;52.552;13.436;2022-12-07T00:34:16;11.57;;;8.73;;
18983;SDS011;9626;52.552;13.436;2022-12-07T00:36:43;11.43;;;7.93;;
18983;SDS011;9626;52.552;13.436;2022-12-07T00:39:09;11.57;;;8.03;;
18983;SDS011;9626;52.552;13.436;2022-12-07T00:41:36;10.97;;;8.07;;
18983;SDS011;9626;52.552;13.436;2022-12-07T00:44:02;11.07;;;8.50;;
18983;SDS011;9626;52.552;13.436;2022-12-07T00:46:28;11.17;;;8.40;;
18983;SDS011;9626;52.552;13.436;2022-12-07T00:48:55;10.93;;;8.50;;
18983;SDS011;9626;52.552;13.436;2022-12-07T00:51:22;10.63;;;7.97;;
18983;SDS011;9626;52.552;13.436;2022-12-07T00:53:49;11.97;;;9.03;;
18983;SDS011;9626;52.552;13.436;2022-12-07T00:56:16;11.80;;;8.47;;
18983;SDS011;9626;52.552;13.436;2022-12-07T00:58:44;11.53;;;7.97;;
18983;SDS011;9626;52.552;13.436;2022-12-07T01:01:19;10.10;;;7.83;;
18983;SDS011;9626;52.552;13.436;2022-12-07T01:03:45;10.10;;;7.70;;
18983;SDS011;9626;52.552;13.436;2022-12-07T01:06:14;10.50;;;7.73;;
18983;SDS011;9626;52.552;13.436;2022-12-07T01:08:42;10.80;;;8.33;;
18983;SDS011;9626;52.552;13.436;2022-12-07T01:11:09;10.83;;;8.30;;
18983;SDS011;9626;52.552;13.436;2022-12-07T01:13:41;11.37;;;8.53;;
18983;SDS011;9626;52.552;13.436;2022-12-07T01:16:07;10.80;;;7.67;;
18983;SDS011;9626;52.552;13.436;2022-12-07T01:18:35;9.73;;;7.27;;
18983;SDS011;9626;52.552;13.436;2022-12-07T01:21:06;12.13;;;8.70;;
18983;SDS011;9626;52.552;13.436;2022-12-07T01:23:34;10.17;;;7.80;;
18983;SDS011;9626;52.552;13.436;2022-12-07T01:26:02;9.57;;;7.40;;
18983;SDS011;9626;52.552;13.436;2022-12-07T01:28:31;9.53;;;7.73;;
18983;SDS011;9626;52.552;13.436;2022-12-07T01:31:01;9.77;;;7.43;;
18983;SDS011;9626;52.552;13.436;2022-12-07T01:33:31;10.17;;;7.40;;
18983;SDS011;9626;52.552;13.436;2022-12-07T01:38:40;8.67;;;7.33;;
18983;SDS011;9626;52.552;13.436;2022-12-07T01:41:06;8.30;;;7.00;;
18983;SDS011;9626;52.552;13.436;2022-12-07T01:43:33;9.57;;;7.00;;
18983;SDS011;9626;52.552;13.436;2022-12-07T01:46:00;8.37;;;6.20;;
18983;SDS011;9626;52.552;13.436;2022-12-07T01:48:31;9.77;;;7.00;;
18983;SDS011;9626;52.552;13.436;2022-12-07T01:51:06;11.83;;;7.13;;
18983;SDS011;9626;52.552;13.436;2022-12-07T01:53:37;7.93;;;6.07;;
18983;SDS011;9626;52.552;13.436;2022-12-07T01:56:08;9.10;;;6.43;;
18983;SDS011;9626;52.552;13.436;2022-12-07T01:58:38;8.47;;;6.07;;
18983;SDS011;9626;52.552;13.436;2022-12-07T02:01:04;8.67;;;6.50;;
18983;SDS011;9626;52.552;13.436;2022-12-07T02:03:32;7.57;;;6.13;;
18983;SDS011;9626;52.552;13.436;2022-12-07T02:06:04;7.90;;;5.90;;
18983;SDS011;9626;52.552;13.436;2022-12-07T02:08:30;7.17;;;5.43;;
18983;SDS011;9626;52.552;13.436;2022-12-07T02:10:57;7.50;;;5.93;;
18983;SDS011;9626;52.552;13.436;2022-12-07T02:13:24;7.23;;;6.07;;
18983;SDS011;9626;52.552;13.436;2022-12-07T02:30:19;8.43;;;5.10;;
18983;SDS011;9626;52.552;13.436;2022-12-07T02:35:42;7.67;;;5.40;;
18983;SDS011;9626;52.552;13.436;2022-12-07T02:38:48;6.70;;;5.07;;
18983;SDS011;9626;52.552;13.436;2022-12-07T02:44:00;5.83;;;4.97;;
18983;SDS011;9626;52.552;13.436;2022-12-07T02:46:34;6.40;;;5.20;;
18983;SDS011;9626;52.552;13.436;2022-12-07T02:49:03;6.90;;;5.63;;
18983;SDS011;9626;52.552;13.436;2022-12-07T02:51:31;6.40;;;5.63;;
18983;SDS011;9626;52.552;13.436;2022-12-07T02:53:58;8.17;;;6.10;;
18983;SDS011;9626;52.552;13.436;2022-12-07T02:56:44;7.40;;;5.77;;
18983;SDS011;9626;52.552;13.436;2022-12-07T02:59:23;5.63;;;4.60;;
18983;SDS011;9626;52.552;13.436;2022-12-07T03:07:52;7.93;;;6.17;;
18983;SDS011;9626;52.552;13.436;2022-12-07T03:10:30;8.83;;;6.70;;
18983;SDS011;9626;52.552;13.436;2022-12-07T03:18:47;9.07;;;6.80;;
18983;SDS011;9626;52.552;13.436;2022-12-07T03:21:20;9.67;;;6.50;;
18983;SDS011;9626;52.552;13.436;2022-12-07T03:23:52;9.13;;;6.67;;
18983;SDS011;9626;52.552;13.436;2022-12-07T03:26:21;9.80;;;7.83;;
18983;SDS011;9626;52.552;13.436;2022-12-07T03:28:54;9.23;;;7.07;;
18983;SDS011;9626;52.552;13.436;2022-12-07T03:31:26;11.40;;;7.77;;
18983;SDS011;9626;52.552;13.436;2022-12-07T03:34:02;10.73;;;7.17;;
18983;SDS011;9626;52.552;13.436;2022-12-07T03:36:40;11.10;;;8.47;;
18983;SDS011;9626;52.552;13.436;2022-12-07T03:42:07;10.13;;;7.43;;
18983;SDS011;9626;52.552;13.436;2022-12-07T03:44:35;13.03;;;8.50;;
18983;SDS011;9626;52.552;13.436;2022-12-07T03:47:04;11.93;;;8.77;;
18983;SDS011;9626;52.552;13.436;2022-12-07T03:49:32;12.87;;;8.37;;
18983;SDS011;9626;52.552;13.436;2022-12-07T03:54:58;12.93;;;9.37;;
18983;SDS011;9626;52.552;13.436;2022-12-07T03:57:35;13.60;;;8.83;;
18983;SDS011;9626;52.552;13.436;2022-12-07T04:00:04;13.87;;;10.27;;
18983;SDS011;9626;52.552;13.436;2022-12-07T04:02:33;12.70;;;9.40;;
18983;SDS011;9626;52.552;13.436;2022-12-07T04:04:59;15.53;;;9.80;;
18983;SDS011;9626;52.552;13.436;2022-12-07T04:07:26;13.13;;;9.53;;
18983;SDS011;9626;52.552;13.436;2022-12-07T04:09:52;12.17;;;9.33;;
18983;SDS011;9626;52.552;13.436;2022-12-07T04:12:20;12.33;;;7.83;;
18983;SDS011;9626;52.552;13.436;2022-12-07T04:14:47;13.17;;;9.67;;
18983;SDS011;9626;52.552;13.436;2022-12-07T04:17:13;13.60;;;8.70;;
18983;SDS011;9626;52.552;13.436;2022-12-07T04:19:39;14.17;;;9.70;;
18983;SDS011;9626;52.552;13.436;2022-12-07T04:22:05;15.63;;;10.73;;
18983;SDS011;9626;52.552;13.436;2022-12-07T04:24:32;14.20;;;9.90;;
18983;SDS011;9626;52.552;13.436;2022-12-07T04:26:59;15.20;;;10.87;;
18983;SDS011;9626;52.552;13.436;2022-12-07T04:29:25;14.37;;;8.83;;
18983;SDS011;9626;52.552;13.436;2022-12-07T04:31:51;16.10;;;10.67;;
18983;SDS011;9626;52.552;13.436;2022-12-07T04:34:17;14.87;;;9.70;;
18983;SDS011;9626;52.552;13.436;2022-12-07T04:36:44;17.10;;;11.00;;
18983;SDS011;9626;52.552;13.436;2022-12-07T04:39:16;14.90;;;10.70;;
18983;SDS011;9626;52.552;13.436;2022-12-07T04:42:00;15.20;;;11.23;;
18983;SDS011;9626;52.552;13.436;2022-12-07T04:44:27;16.50;;;10.70;;
18983;SDS011;9626;52.552;13.436;2022-12-07T04:46:54;16.53;;;11.83;;
18983;SDS011;9626;52.552;13.436;2022-12-07T04:49:21;16.77;;;10.20;;
18983;SDS011;9626;52.552;13.436;2022-12-07T04:51:47;16.20;;;11.40;;
18983;SDS011;9626;52.552;13.436;2022-12-07T04:54:13;15.43;;;11.27;;
18983;SDS011;9626;52.552;13.436;2022-12-07T04:56:40;18.63;;;12.40;;
18983;SDS011;9626;52.552;13.436;2022-12-07T04:59:07;18.37;;;11.37;;
18983;SDS011;9626;52.552;13.436;2022-12-07T05:01:33;17.23;;;11.73;;
18983;SDS011;9626;52.552;13.436;2022-12-07T05:03:59;18.93;;;13.07;;
18983;SDS011;9626;52.552;13.436;2022-12-07T05:06:25;20.10;;;12.27;;
18983;SDS011;9626;52.552;13.436;2022-12-07T05:08:51;15.00;;;11.17;;
18983;SDS011;9626;52.552;13.436;2022-12-07T05:11:17;18.33;;;12.83;;
18983;SDS011;9626;52.552;13.436;2022-12-07T05:14:02;18.13;;;12.30;;
18983;SDS011;9626;52.552;13.436;2022-12-07T05:16:33;19.33;;;12.87;;
18983;SDS011;9626;52.552;13.436;2022-12-07T05:18:59;19.33;;;13.07;;
18983;SDS011;9626;52.552;13.436;2022-12-07T05:21:25;21.70;;;14.53;;
18983;SDS011;9626;52.552;13.436;2022-12-07T05:23:51;22.23;;;14.50;;
18983;SDS011;9626;52.552;13.436;2022-12-07T05:26:18;21.73;;;14.57;;
18983;SDS011;9626;52.552;13.436;2022-12-07T05:28:44;21.23;;;14.83;;
18983;SDS011;9626;52.552;13.436;2022-12-07T05:31:10;19.53;;;13.77;;
18983;SDS011;9626;52.552;13.436;2022-12-07T05:33:36;23.47;;;15.60;;
18983;SDS011;9626;52.552;13.436;2022-12-07T05:36:02;22.90;;;13.60;;
18983;SDS011;9626;52.552;13.436;2022-12-07T05:38:31;20.93;;;15.17;;
18983;SDS011;9626;52.552;13.436;2022-12-07T05:41:01;24.10;;;15.13;;
18983;SDS011;9626;52.552;13.436;2022-12-07T05:43:33;24.67;;;16.17;;
18983;SDS011;9626;52.552;13.436;2022-12-07T05:45:59;24.77;;;16.07;;
18983;SDS011;9626;52.552;13.436;2022-12-07T05:48:25;23.03;;;15.87;;
18983;SDS011;9626;52.552;13.436;2022-12-07T05:50:52;24.33;;;16.60;;
18983;SDS011;9626;52.552;13.436;2022-12-07T05:53:18;26.33;;;16.43;;
18983;SDS011;9626;52.552;13.436;2022-12-07T05:55:44;25.03;;;16.40;;
18983;SDS011;9626;52.552;13.436;2022-12-07T05:58:10;24.17;;;15.37;;
18983;SDS011;9626;52.552;13.436;2022-12-07T06:00:55;23.97;;;15.87;;
18983;SDS011;9626;52.552;13.436;2022-12-07T06:03:22;30.13;;;16.00;;
18983;SDS011;9626;52.552;13.436;2022-12-07T06:05:48;24.37;;;16.73;;
18983;SDS011;9626;52.552;13.436;2022-12-07T06:08:14;22.90;;;15.50;;
18983;SDS011;9626;52.552;13.436;2022-12-07T06:10:41;26.07;;;16.20;;
18983;SDS011;9626;52.552;13.436;2022-12-07T06:13:08;22.83;;;15.70;;
18983;SDS011;9626;52.552;13.436;2022-12-07T06:18:24;24.63;;;16.53;;
18983;SDS011;9626;52.552;13.436;2022-12-07T06:20:50;26.57;;;17.43;;
18983;SDS011;9626;52.552;13.436;2022-12-07T06:23:16;35.73;;;16.87;;
18983;SDS011;9626;52.552;13.436;2022-12-07T06:25:45;24.50;;;15.83;;
18983;SDS011;9626;52.552;13.436;2022-12-07T06:28:11;23.93;;;14.90;;
18983;SDS011;9626;52.552;13.436;2022-12-07T06:30:37;23.77;;;15.23;;
18983;SDS011;9626;52.552;13.436;2022-12-07T06:33:03;25.10;;;15.03;;
18983;SDS011;9626;52.552;13.436;2022-12-07T06:35:29;20.37;;;13.37;;
18983;SDS011;9626;52.552;13.436;2022-12-07T06:37:55;24.93;;;15.47;;
18983;SDS011;9626;52.552;13.436;2022-12-07T06:40:21;25.27;;;14.87;;
18983;SDS011;9626;52.552;13.436;2022-12-07T06:42:47;21.27;;;14.13;;
18983;SDS011;9626;52.552;13.436;2022-12-07T06:45:13;23.63;;;14.93;;
18983;SDS011;9626;52.552;13.436;2022-12-07T06:47:39;25.17;;;16.50;;
18983;SDS011;9626;52.552;13.436;2022-12-07T06:50:05;22.70;;;15.53;;
18983;SDS011;9626;52.552;13.436;2022-12-07T06:52:33;24.30;;;16.17;;
18983;SDS011;9626;52.552;13.436;2022-12-07T06:54:59;24.13;;;15.20;;
18983;SDS011;9626;52.552;13.436;2022-12-07T06:57:25;29.30;;;15.50;;
18983;SDS011;9626;52.552;13.436;2022-12-07T06:59:52;26.10;;;17.00;;
18983;SDS011;9626;52.552;13.436;2022-12-07T07:02:18;25.13;;;15.57;;
18983;SDS011;9626;52.552;13.436;2022-12-07T07:04:44;28.43;;;16.57;;
18983;SDS011;9626;52.552;13.436;2022-12-07T07:07:10;28.97;;;16.10;;
18983;SDS011;9626;52.552;13.436;2022-12-07T07:09:36;25.27;;;16.20;;
18983;SDS011;9626;52.552;13.436;2022-12-07T07:12:02;26.57;;;15.10;;
18983;SDS011;9626;52.552;13.436;2022-12-07T07:14:28;26.17;;;16.50;;
18983;SDS011;9626;52.552;13.436;2022-12-07T07:16:54;29.27;;;16.93;;
18983;SDS011;9626;52.552;13.436;2022-12-07T07:19:20;25.87;;;15.37;;
18983;SDS011;9626;52.552;13.436;2022-12-07T07:21:46;25.20;;;15.80;;
18983;SDS011;9626;52.552;13.436;2022-12-07T07:24:12;25.13;;;16.07;;
18983;SDS011;9626;52.552;13.436;2022-12-07T07:26:38;25.37;;;15.17;;
18983;SDS011;9626;52.552;13.436;2022-12-07T07:29:04;27.43;;;15.40;;
18983;SDS011;9626;52.552;13.436;2022-12-07T07:31:30;27.30;;;16.87;;
18983;SDS011;9626;52.552;13.436;2022-12-07T07:33:56;26.80;;;16.57;;
18983;SDS011;9626;52.552;13.436;2022-12-07T07:36:22;21.73;;;14.87;;
18983;SDS011;9626;52.552;13.436;2022-12-07T07:38:48;23.33;;;14.70;;
18983;SDS011;9626;52.552;13.436;2022-12-07T07:41:14;21.77;;;13.97;;
18983;SDS011;9626;52.552;13.436;2022-12-07T07:43:40;25.93;;;14.73;;
18983;SDS011;9626;52.552;13.436;2022-12-07T07:46:06;23.23;;;13.73;;
18983;SDS011;9626;52.552;13.436;2022-12-07T07:48:32;19.10;;;11.83;;
18983;SDS011;9626;52.552;13.436;2022-12-07T07:50:58;18.33;;;11.43;;
18983;SDS011;9626;52.552;13.436;2022-12-07T07:53:24;21.43;;;13.83;;
18983;SDS011;9626;52.552;13.436;2022-12-07T07:55:53;20.13;;;11.50;;
18983;SDS011;9626;52.552;13.436;2022-12-07T07:58:20;18.10;;;12.77;;
18983;SDS011;9626;52.552;13.436;2022-12-07T08:00:46;19.97;;;12.13;;
18983;SDS011;9626;52.552;13.436;2022-12-07T08:03:12;23.90;;;14.97;;
18983;SDS011;9626;52.552;13.436;2022-12-07T08:05:38;18.50;;;10.90;;
18983;SDS011;9626;52.552;13.436;2022-12-07T08:08:04;13.20;;;9.23;;
18983;SDS011;9626;52.552;13.436;2022-12-07T08:10:30;16.57;;;10.13;;
18983;SDS011;9626;52.552;13.436;2022-12-07T08:12:58;14.20;;;9.30;;
18983;SDS011;9626;52.552;13.436;2022-12-07T08:15:36;14.53;;;8.93;;
18983;SDS011;9626;52.552;13.436;2022-12-07T08:18:04;13.03;;;7.90;;
18983;SDS011;9626;52.552;13.436;2022-12-07T08:20:31;13.57;;;7.77;;
18983;SDS011;9626;52.552;13.436;2022-12-07T08:22:58;11.70;;;7.60;;
18983;SDS011;9626;52.552;13.436;2022-12-07T08:25:24;11.97;;;8.07;;
18983;SDS011;9626;52.552;13.436;2022-12-07T08:27:51;11.93;;;8.13;;
18983;SDS011;9626;52.552;13.436;2022-12-07T08:30:17;9.83;;;5.93;;
18983;SDS011;9626;52.552;13.436;2022-12-07T08:32:44;8.33;;;6.83;;
18983;SDS011;9626;52.552;13.436;2022-12-07T08:35:10;8.90;;;5.57;;
18983;SDS011;9626;52.552;13.436;2022-12-07T08:37:37;7.87;;;5.33;;
18983;SDS011;9626;52.552;13.436;2022-12-07T08:40:03;7.57;;;5.57;;
18983;SDS011;9626;52.552;13.436;2022-12-07T08:42:33;7.83;;;5.30;;
18983;SDS011;9626;52.552;13.436;2022-12-07T08:45:06;9.23;;;5.23;;
18983;SDS011;9626;52.552;13.436;2022-12-07T08:47:34;8.03;;;4.80;;
18983;SDS011;9626;52.552;13.436;2022-12-07T08:50:03;5.20;;;4.30;;
18983;SDS011;9626;52.552;13.436;2022-12-07T08:52:32;6.83;;;4.20;;
18983;SDS011;9626;52.552;13.436;2022-12-07T08:55:00;5.10;;;4.27;;
18983;SDS011;9626;52.552;13.436;2022-12-07T08:57:27;15.97;;;8.47;;
18983;SDS011;9626;52.552;13.436;2022-12-07T08:59:54;5.73;;;4.17;;
18983;SDS011;9626;52.552;13.436;2022-12-07T09:02:20;3.93;;;3.23;;
18983;SDS011;9626;52.552;13.436;2022-12-07T09:04:46;5.07;;;3.57;;
18983;SDS011;9626;52.552;13.436;2022-12-07T09:07:12;6.63;;;3.40;;
18983;SDS011;9626;52.552;13.436;2022-12-07T09:09:38;4.87;;;2.57;;
18983;SDS011;9626;52.552;13.436;2022-12-07T09:12:04;3.40;;;2.80;;
18983;SDS011;9626;52.552;13.436;2022-12-07T09:14:30;3.37;;;2.83;;
18983;SDS011;9626;52.552;13.436;2022-12-07T09:17:04;5.83;;;3.30;;
18983;SDS011;9626;52.552;13.436;2022-12-07T09:19:34;4.40;;;2.60;;
18983;SDS011;9626;52.552;13.436;2022-12-07T09:22:00;2.80;;;2.27;;
18983;SDS011;9626;52.552;13.436;2022-12-07T09:24:26;2.60;;;2.30;;
18983;SDS011;9626;52.552;13.436;2022-12-07T09:26:52;3.13;;;2.30;;
18983;SDS011;9626;52.552;13.436;2022-12-07T09:29:18;2.90;;;2.10;;
18983;SDS011;9626;52.552;13.436;2022-12-07T09:31:44;4.20;;;2.23;;
18983;SDS011;9626;52.552;13.436;2022-12-07T09:34:10;1.90;;;1.80;;
18983;SDS011;9626;52.552;13.436;2022-12-07T09:36:36;2.80;;;1.90;;
18983;SDS011;9626;52.552;13.436;2022-12-07T09:39:03;2.90;;;2.00;;
18983;SDS011;9626;52.552;13.436;2022-12-07T09:41:30;2.27;;;1.70;;
18983;SDS011;9626;52.552;13.436;2022-12-07T09:44:32;3.37;;;2.40;;
18983;SDS011;9626;52.552;13.436;2022-12-07T09:46:51;2.83;;;2.10;;
18983;SDS011;9626;52.552;13.436;2022-12-07T09:49:22;2.30;;;2.10;;
18983;SDS011;9626;52.552;13.436;2022-12-07T09:52:01;2.63;;;1.97;;
18983;SDS011;9626;52.552;13.436;2022-12-07T09:54:48;2.60;;;2.30;;
18983;SDS011;9626;52.552;13.436;2022-12-07T09:57:16;3.43;;;2.00;;
18983;SDS011;9626;52.552;13.436;2022-12-07T09:59:42;2.97;;;2.40;;
18983;SDS011;9626;52.552;13.436;2022-12-07T10:05:03;2.40;;;2.00;;
18983;SDS011;9626;52.552;13.436;2022-12-07T10:07:31;2.10;;;1.80;;
18983;SDS011;9626;52.552;13.436;2022-12-07T10:09:57;3.10;;;1.97;;
18983;SDS011;9626;52.552;13.436;2022-12-07T10:12:25;1.63;;;1.40;;
18983;SDS011;9626;52.552;13.436;2022-12-07T10:14:56;2.93;;;1.70;;
18983;SDS011;9626;52.552;13.436;2022-12-07T10:17:30;3.53;;;1.70;;
18983;SDS011;9626;52.552;13.436;2022-12-07T10:22:53;2.90;;;1.73;;
18983;SDS011;9626;52.552;13.436;2022-12-07T10:25:21;4.67;;;1.33;;
18983;SDS011;9626;52.552;13.436;2022-12-07T10:27:58;3.47;;;2.00;;
18983;SDS011;9626;52.552;13.436;2022-12-07T10:30:26;3.07;;;1.87;;
18983;SDS011;9626;52.552;13.436;2022-12-07T10:32:52;2.03;;;1.80;;
18983;SDS011;9626;52.552;13.436;2022-12-07T10:35:25;2.43;;;1.60;;
18983;SDS011;9626;52.552;13.436;2022-12-07T10:37:58;3.63;;;1.83;;
18983;SDS011;9626;52.552;13.436;2022-12-07T10:43:13;2.47;;;1.80;;
18983;SDS011;9626;52.552;13.436;2022-12-07T10:48:54;105.30;;;57.50;;
18983;SDS011;9626;52.552;13.436;2022-12-07T10:54:12;3.63;;;2.50;;
18983;SDS011;9626;52.552;13.436;2022-12-07T10:56:53;2.60;;;2.10;;
18983;SDS011;9626;52.552;13.436;2022-12-07T11:04:59;3.17;;;2.50;;
18983;SDS011;9626;52.552;13.436;2022-12-07T11:07:37;3.40;;;2.07;;
18983;SDS011;9626;52.552;13.436;2022-12-07T11:10:22;6.73;;;2.87;;
18983;SDS011;9626;52.552;13.436;2022-12-07T11:13:13;4.00;;;2.60;;
18983;SDS011;9626;52.552;13.436;2022-12-07T11:16:15;2.97;;;2.50;;
18983;SDS011;9626;52.552;13.436;2022-12-07T11:21:43;2.80;;;2.27;;
18983;SDS011;9626;52.552;13.436;2022-12-07T11:24:23;2.90;;;2.60;;
18983;SDS011;9626;52.552;13.436;2022-12-07T11:27:06;2.57;;;2.17;;
18983;SDS011;9626;52.552;13.436;2022-12-07T11:29:44;2.70;;;2.50;;
18983;SDS011;9626;52.552;13.436;2022-12-07T11:32:32;2.87;;;2.30;;
18983;SDS011;9626;52.552;13.436;2022-12-07T11:38:17;4.10;;;2.37;;
18983;SDS011;9626;52.552;13.436;2022-12-07T11:40:51;4.73;;;2.90;;
18983;SDS011;9626;52.552;13.436;2022-12-07T11:51:18;5.07;;;2.77;;
18983;SDS011;9626;52.552;13.436;2022-12-07T11:53:56;4.53;;;2.83;;
18983;SDS011;9626;52.552;13.436;2022-12-07T11:56:27;4.90;;;2.73;;
18983;SDS011;9626;52.552;13.436;2022-12-07T11:59:04;4.63;;;2.87;;
18983;SDS011;9626;52.552;13.436;2022-12-07T12:06:38;4.93;;;2.97;;
18983;SDS011;9626;52.552;13.436;2022-12-07T12:09:15;8.77;;;3.30;;
18983;SDS011;9626;52.552;13.436;2022-12-07T12:11:56;5.03;;;3.00;;
18983;SDS011;9626;52.552;13.436;2022-12-07T12:23:20;5.07;;;2.53;;
18983;SDS011;9626;52.552;13.436;2022-12-07T12:25:54;7.10;;;3.23;;
18983;SDS011;9626;52.552;13.436;2022-12-07T12:31:05;6.27;;;3.00;;
18983;SDS011;9626;52.552;13.436;2022-12-07T12:33:34;6.20;;;3.03;;
18983;SDS011;9626;52.552;13.436;2022-12-07T12:51:51;5.07;;;2.63;;
18983;SDS011;9626;52.552;13.436;2022-12-07T12:59:32;7.50;;;2.47;;
18983;SDS011;9626;52.552;13.436;2022-12-07T13:02:09;5.87;;;2.50;;
18983;SDS011;9626;52.552;13.436;2022-12-07T13:04:59;10.30;;;2.93;;
18983;SDS011;9626;52.552;13.436;2022-12-07T13:15:49;4.07;;;2.33;;
18983;SDS011;9626;52.552;13.436;2022-12-07T13:29:05;6.80;;;2.80;;
18983;SDS011;9626;52.552;13.436;2022-12-07T13:31:39;6.27;;;2.50;;
18983;SDS011;9626;52.552;13.436;2022-12-07T13:39:47;3.97;;;2.27;;
18983;SDS011;9626;52.552;13.436;2022-12-07T13:42:25;5.13;;;2.50;;
18983;SDS011;9626;52.552;13.436;2022-12-07T13:44:53;4.57;;;2.10;;
18983;SDS011;9626;52.552;13.436;2022-12-07T13:50:23;9.27;;;2.53;;
18983;SDS011;9626;52.552;13.436;2022-12-07T13:52:54;7.33;;;2.50;;
18983;SDS011;9626;52.552;13.436;2022-12-07T13:55:22;6.77;;;2.33;;
18983;SDS011;9626;52.552;13.436;2022-12-07T13:57:49;6.80;;;2.00;;
18983;SDS011;9626;52.552;13.436;2022-12-07T14:00:20;11.30;;;2.10;;
18983;SDS011;9626;52.552;13.436;2022-12-07T14:05:26;5.73;;;2.17;;
18983;SDS011;9626;52.552;13.436;2022-12-07T14:07:54;5.53;;;2.20;;
18983;SDS011;9626;52.552;13.436;2022-12-07T14:12:54;6.93;;;2.00;;
18983;SDS011;9626;52.552;13.436;2022-12-07T14:15:22;6.53;;;2.00;;
18983;SDS011;9626;52.552;13.436;2022-12-07T14:17:59;5.47;;;2.03;;
18983;SDS011;9626;52.552;13.436;2022-12-07T14:20:32;5.13;;;1.90;;
18983;SDS011;9626;52.552;13.436;2022-12-07T14:23:03;6.73;;;2.60;;
18983;SDS011;9626;52.552;13.436;2022-12-07T14:25:49;3.63;;;2.00;;
18983;SDS011;9626;52.552;13.436;2022-12-07T14:28:38;8.47;;;4.57;;
18983;SDS011;9626;52.552;13.436;2022-12-07T14:31:03;10.80;;;3.83;;
18983;SDS011;9626;52.552;13.436;2022-12-07T14:33:38;12.67;;;6.57;;
18983;SDS011;9626;52.552;13.436;2022-12-07T14:36:05;8.40;;;3.00;;
18983;SDS011;9626;52.552;13.436;2022-12-07T14:38:34;8.03;;;2.80;;
18983;SDS011;9626;52.552;13.436;2022-12-07T14:41:00;7.90;;;2.93;;
18983;SDS011;9626;52.552;13.436;2022-12-07T14:43:45;4.57;;;2.30;;
18983;SDS011;9626;52.552;13.436;2022-12-07T14:46:11;5.13;;;2.60;;
18983;SDS011;9626;52.552;13.436;2022-12-07T14:48:37;9.50;;;2.83;;
18983;SDS011;9626;52.552;13.436;2022-12-07T14:51:04;8.00;;;2.67;;
18983;SDS011;9626;52.552;13.436;2022-12-07T14:53:33;5.80;;;2.40;;
18983;SDS011;9626;52.552;13.436;2022-12-07T14:56:02;3.97;;;2.33;;
18983;SDS011;9626;52.552;13.436;2022-12-07T14:58:31;8.63;;;2.33;;
18983;SDS011;9626;52.552;13.436;2022-12-07T15:00:58;6.37;;;2.50;;
18983;SDS011;9626;52.552;13.436;2022-12-07T15:03:24;9.83;;;3.37;;
18983;SDS011;9626;52.552;13.436;2022-12-07T15:05:50;9.70;;;2.80;;
18983;SDS011;9626;52.552;13.436;2022-12-07T15:08:16;6.67;;;2.50;;
18983;SDS011;9626;52.552;13.436;2022-12-07T15:10:43;9.57;;;3.70;;
18983;SDS011;9626;52.552;13.436;2022-12-07T15:13:10;7.53;;;2.30;;
18983;SDS011;9626;52.552;13.436;2022-12-07T15:15:55;60.87;;;20.53;;
18983;SDS011;9626;52.552;13.436;2022-12-07T15:18:21;16.67;;;5.30;;
18983;SDS011;9626;52.552;13.436;2022-12-07T15:20:49;14.50;;;4.47;;
18983;SDS011;9626;52.552;13.436;2022-12-07T15:23:15;81.13;;;24.47;;
18983;SDS011;9626;52.552;13.436;2022-12-07T15:25:42;47.70;;;20.30;;
18983;SDS011;9626;52.552;13.436;2022-12-07T15:28:09;6.40;;;3.10;;
18983;SDS011;9626;52.552;13.436;2022-12-07T15:30:38;10.80;;;3.57;;
18983;SDS011;9626;52.552;13.436;2022-12-07T15:33:06;6.83;;;2.40;;
18983;SDS011;9626;52.552;13.436;2022-12-07T15:35:32;7.33;;;2.50;;
18983;SDS011;9626;52.552;13.436;2022-12-07T15:37:58;5.13;;;2.13;;
18983;SDS011;9626;52.552;13.436;2022-12-07T15:40:24;6.13;;;2.10;;
18983;SDS011;9626;52.552;13.436;2022-12-07T15:42:50;8.33;;;2.77;;
18983;SDS011;9626;52.552;13.436;2022-12-07T15:45:16;8.27;;;2.70;;
18983;SDS011;9626;52.552;13.436;2022-12-07T15:47:43;5.37;;;2.03;;
18983;SDS011;9626;52.552;13.436;2022-12-07T15:50:13;5.83;;;2.13;;
18983;SDS011;9626;52.552;13.436;2022-12-07T15:52:40;7.30;;;2.20;;
18983;SDS011;9626;52.552;13.436;2022-12-07T15:55:07;11.47;;;2.90;;
18983;SDS011;9626;52.552;13.436;2022-12-07T15:57:34;12.40;;;2.17;;
18983;SDS011;9626;52.552;13.436;2022-12-07T16:00:03;8.07;;;2.00;;
18983;SDS011;9626;52.552;13.436;2022-12-07T16:02:30;7.53;;;3.00;;
18983;SDS011;9626;52.552;13.436;2022-12-07T16:04:56;5.33;;;2.20;;
18983;SDS011;9626;52.552;13.436;2022-12-07T16:07:22;7.97;;;2.50;;
18983;SDS011;9626;52.552;13.436;2022-12-07T16:09:49;9.20;;;3.30;;
18983;SDS011;9626;52.552;13.436;2022-12-07T16:12:16;5.33;;;2.20;;
18983;SDS011;9626;52.552;13.436;2022-12-07T16:14:42;4.80;;;1.87;;
18983;SDS011;9626;52.552;13.436;2022-12-07T16:17:09;6.70;;;2.23;;
18983;SDS011;9626;52.552;13.436;2022-12-07T16:19:36;6.20;;;2.17;;
18983;SDS011;9626;52.552;13.436;2022-12-07T16:22:03;8.77;;;2.70;;
18983;SDS011;9626;52.552;13.436;2022-12-07T16:24:30;9.97;;;2.40;;
18983;SDS011;9626;52.552;13.436;2022-12-07T16:26:56;6.90;;;2.30;;
18983;SDS011;9626;52.552;13.436;2022-12-07T16:29:22;6.87;;;2.57;;
18983;SDS011;9626;52.552;13.436;2022-12-07T16:31:49;6.57;;;2.27;;
18983;SDS011;9626;52.552;13.436;2022-12-07T16:34:17;5.60;;;2.00;;
18983;SDS011;9626;52.552;13.436;2022-12-07T16:36:43;10.40;;;2.40;;
18983;SDS011;9626;52.552;13.436;2022-12-07T16:39:11;4.70;;;1.90;;
18983;SDS011;9626;52.552;13.436;2022-12-07T16:41:37;8.93;;;2.70;;
18983;SDS011;9626;52.552;13.436;2022-12-07T16:44:05;6.90;;;2.77;;
18983;SDS011;9626;52.552;13.436;2022-12-07T16:46:33;6.47;;;2.60;;
18983;SDS011;9626;52.552;13.436;2022-12-07T16:49:00;3.77;;;2.20;;
18983;SDS011;9626;52.552;13.436;2022-12-07T16:51:26;11.27;;;2.47;;
18983;SDS011;9626;52.552;13.436;2022-12-07T16:53:52;8.30;;;2.63;;
18983;SDS011;9626;52.552;13.436;2022-12-07T16:56:19;8.33;;;2.50;;
18983;SDS011;9626;52.552;13.436;2022-12-07T16:58:45;6.90;;;2.73;;
18983;SDS011;9626;52.552;13.436;2022-12-07T17:01:16;6.67;;;2.67;;
18983;SDS011;9626;52.552;13.436;2022-12-07T17:03:44;8.13;;;3.10;;
18983;SDS011;9626;52.552;13.436;2022-12-07T17:08:41;5.63;;;2.83;;
18983;SDS011;9626;52.552;13.436;2022-12-07T17:11:21;6.53;;;2.30;;
18983;SDS011;9626;52.552;13.436;2022-12-07T17:13:48;7.80;;;2.40;;
18983;SDS011;9626;52.552;13.436;2022-12-07T17:16:34;9.00;;;2.23;;
18983;SDS011;9626;52.552;13.436;2022-12-07T17:19:03;7.67;;;2.70;;
18983;SDS011;9626;52.552;13.436;2022-12-07T17:21:31;7.70;;;2.13;;